Snake Valley, Nevada Weather observations

Data are for 10 minute period ending at time listed.
 Day   Time   Solar   Ave.   Ave.  Ave.  Vector  Max.   Baro.   Total    
  of    of     Rad.   Air    Rel.  Wind   Wind   Wind  Press.  Precip.   
Year   Day            Temp.  Hum.  Speed  Dir.   Gust                    
2015   (PST)  Kw/m2    F      %     mph   deg.    mph    mb.     in.     
-------------------------------------------------------------------------
 114   17:50   0.01   48.4    78    5.0   347     8.0   833.6    0.01 
 114   18:00   0.01   48.6    77    4.4   350     8.3   833.8    0.00 
 114   18:10   0.02   48.9    66    4.1   336     7.7   833.8    0.00 
 114   18:20   0.02   48.0    72    4.1   258     6.4   833.8    0.00 
 114   18:30   0.01   47.2    80    7.2   183     9.0   833.7    0.01 
 114   18:40   0.00   46.6    84    9.1   168    13.1   833.6    0.00 
 114   18:50   0.00   46.1    85    8.3   172    12.7   833.4    0.00 
 114   19:00   0.00   45.9    86    6.5   167     9.1   833.6    0.00 
 114   19:10   0.00   45.7    86    4.8   196     7.3   833.6    0.00 
 114   19:20   0.00   44.8    88    3.7   222     6.1   833.8    0.00 
 114   19:30   0.00   45.5    88    3.1   178     4.9   833.8    0.00 
 114   19:40   0.00   45.7    87    3.0   185     4.5   833.8    0.00 
 114   19:50   0.00   45.4    87    2.6   130     4.0   833.9    0.00 
 114   20:00   0.00   44.2    88    3.4   334     4.3   834.2    0.00 
 114   20:10   0.00   44.6    88    2.7   317     4.2   834.5    0.00 
 114   20:20   0.00   44.2    88    3.5    24     5.3   834.5    0.00 
 114   20:30   0.00   42.5    88    3.5   232     6.9   834.6    0.00 
 114   20:40   0.00   42.5    90    3.6   339     5.3   834.6    0.00 
 114   20:50   0.00   42.7    90    2.0   353     3.6   834.6    0.00 
 114   21:00   0.00   42.2    89    3.0    15     6.3   834.7    0.00 
 114   21:10   0.00   40.9    90    1.6   148     5.2   834.7    0.00 
 114   21:20   0.00   41.2    90    3.7   267     7.1   834.7    0.00 
 114   21:30   0.00   41.3    89    2.2     1     3.9   834.6    0.00 
 114   21:40   0.00   41.7    88    1.2   208     2.9   834.6    0.00 
 114   21:50   0.00   40.2    88    2.8   249     5.9   834.5    0.00 
 114   22:00   0.00   41.0    91    3.5   208     5.6   834.5    0.00 
 114   22:10   0.00   42.4    86    4.4   252     6.8   834.5    0.00 
 114   22:20   0.00   42.5    89    1.8   168     3.9   834.4    0.00 
 114   22:30   0.00   43.6    84    2.5   132     4.7   834.6    0.00 
 114   22:40   0.00   41.9    86    2.6   270     4.2   834.7    0.00 
 114   22:50   0.00   41.9    88    3.4   313     6.5   834.8    0.00 
 114   23:00   0.00   41.8    87    3.7   350     5.6   834.7    0.00 
 114   23:10   0.00   41.3    88    4.3   294     7.5   834.9    0.00 
 114   23:20   0.00   41.2    89    4.9   314     6.4   834.9    0.00 
 114   23:30   0.00   41.5    89    4.8   302     6.3   834.9    0.00 
 114   23:40   0.00   41.7    89    4.1   306     5.7   835.0    0.00 
 114   23:50   0.00   41.9    89    4.1   301     5.7   835.0    0.00 
 115    0:00   0.00   41.8    90    4.5   317     5.9   835.0    0.00 
 115    0:10   0.00   42.2    89    4.0   324     6.1   834.9    0.00 
 115    0:20   0.00   41.8    89    5.1   301     6.3   834.9    0.00 
 115    0:30   0.00   41.8    89    2.9   326     5.5   834.9    0.00 
 115    0:40   0.00   41.8    89    3.7   297     4.8   835.0    0.00 
 115    0:50   0.00   41.6    89    3.2   310     6.1   834.8    0.00 
 115    1:00   0.00   41.1    88    4.1   291     6.1   834.8    0.00 
 115    1:10   0.00   40.3    89    4.2   309     5.3   834.8    0.00 
 115    1:20   0.00   39.8    90    2.9   322     4.0   834.7    0.00 
 115    1:30   0.00   40.3    90    1.9   336     3.2   834.6    0.00 
 115    1:40   0.00   39.1    89    2.6   206     4.8   834.5    0.00 
 115    1:50   0.00   38.8    91    3.5   242     4.6   834.5    0.00 
 115    2:00   0.00   38.1    92    3.8   284     5.2   834.5    0.00 
 115    2:10   0.00   39.5    90    3.3   310     5.6   834.5    0.00 
 115    2:20   0.00   39.2    88    2.1    88     3.8   834.5    0.00 
 115    2:30   0.00   41.0    83    2.9    51     5.2   834.5    0.00 
 115    2:40   0.00   39.5    83    1.9   129     2.7   834.5    0.00 
 115    2:50   0.00   37.6    88    1.3   220     2.9   834.5    0.00 
 115    3:00   0.00   39.0    89    2.0   351     3.7   834.4    0.00 
 115    3:10   0.00   40.2    86    2.6   336     3.9   834.4    0.00 
 115    3:20   0.00   39.7    87    2.8    26     4.5   834.5    0.00 
 115    3:30   0.00   39.7    89    0.4    86     1.9   834.5    0.00 
 115    3:40   0.00   39.4    89    0.3   112     1.4   834.3    0.00 
 115    3:50   0.00   39.5    89    0.2   275     1.5   834.3    0.00 
 115    4:00   0.00   39.7    89    1.7   298     4.0   834.2    0.00 
 115    4:10   0.00   39.9    89    2.9   271     4.3   834.4    0.00 
 115    4:20   0.00   40.2    88    3.4   280     4.2   834.4    0.00 
 115    4:30   0.00   40.2    88    2.1   280     4.0   834.4    0.00 
 115    4:40   0.00   40.3    87    0.7   289     2.5   834.5    0.00 
 115    4:50   0.00   40.2    87    2.9   222     4.2   834.5    0.00 
 115    5:00   0.01   40.3    86    3.2   190     4.3   834.5    0.00 
 115    5:10   0.01   40.5    86    1.6   155     4.1   834.4    0.00 
 115    5:20   0.03   40.4    86    1.5   233     3.5   834.3    0.00 
 115    5:30   0.04   40.1    85    2.9   205     4.2   834.5    0.00 
 115    5:40   0.07   39.6    87    2.4   195     4.6   834.5    0.00 
 115    5:50   0.08   39.9    88    2.8   159     4.7   834.3    0.00 
 115    6:00   0.10   40.6    88    1.9   137     2.8   834.3    0.00 
 115    6:10   0.22   42.8    87    0.3    59     1.7   834.2    0.00 
 115    6:20   0.27   44.5    80    1.9   149     4.5   834.2    0.00 
 115    6:30   0.22   44.3    74    4.0   131     6.1   834.3    0.00 
 115    6:40   0.43   45.4    72    1.4    87     3.2   834.2    0.00 
 115    6:50   0.45   47.6    65    1.3    13     3.3   834.2    0.00 
 115    7:00   0.44   47.2    66    0.4   268     2.3   834.2    0.00 
 115    7:10   0.41   47.7    67    0.3    32     2.4   834.2    0.00 
 115    7:20   0.47   48.7    65    0.8   240     2.6   834.2    0.00 
 115    7:30   0.41   49.5    65    1.7    60     4.9   834.2    0.00 
 115    7:40   0.38   48.6    67    1.2    71     4.5   834.0    0.00 
 115    7:50   0.39   48.3    67    3.4   113     7.2   833.9    0.00 
 115    8:00   0.58   48.5    67    3.8    94     8.6   833.8    0.00 
 115    8:10   0.42   49.0    66    2.6    72     6.2   833.6    0.00 
 115    8:20   0.30   48.1    67    2.8    96     6.2   833.5    0.00 
 115    8:30   0.41   48.6    68    2.7    60     4.5   833.3    0.00 
 115    8:40   0.61   49.4    69    4.4    50     7.7   833.3    0.00 
 115    8:50   0.43   49.6    68    3.7     0     7.9   833.2    0.00 
 115    9:00   0.35   49.4    70    4.0   340     7.3   833.1    0.00 
 115    9:10   0.22   49.2    68    4.8   345    11.2   833.0    0.00 
 115    9:20   0.15   49.2    68   11.5   326    21.9   832.6    0.00 
 115    9:30   0.10   49.4    69    4.8   270    12.3   832.7    0.00 
 115    9:40   0.25   49.8    68    3.3   145     8.5   832.5    0.00 
 115    9:50   0.43   50.2    68    4.6    99    10.6   832.3    0.00 
 115   10:00   0.47   52.1    62    6.6   151    15.2   832.0    0.00 
 115   10:10   0.47   54.0    58   15.6   161    21.9   831.8    0.00 
 115   10:20   0.43   54.2    56   18.9   167    26.9   831.6    0.00 
 115   10:30   0.40   52.3    57   23.5   178    30.2   831.5    0.00 
 115   10:40   0.31   50.6    63   20.9   170    28.5   831.5    0.00 
 115   10:50   0.35   51.4    63   16.3   167    21.5   831.4    0.00 
 115   11:00   0.43   52.4    60   15.2   173    21.5   831.3    0.00 
 115   11:10   0.44   53.3    58   12.2   166    17.9   831.1    0.00 
 115   11:20   0.33   53.2    58   16.5   173    22.7   831.1    0.00 
 115   11:30   0.27   52.3    58   21.1   178    28.3   830.9    0.00 
 115   11:40   0.19   50.1    64   19.7   210    27.8   831.0    0.00 
 115   11:50   0.16   47.4    72    9.8   226    18.8   831.2    0.00 
 115   12:00   0.39   48.5    70    9.2   190    23.6   831.1    0.00 
 115   12:10   0.59   50.8    66   21.0   157    26.7   830.8    0.00 
 115   12:20   0.53   51.1    65   22.5   159    28.9   830.6    0.00 
 115   12:30   0.39   50.3    66   23.0   156    31.0   830.5    0.00 
 115   12:40   0.36   49.9    66   22.7   168    30.9   830.5    0.00 
 115   12:50   0.33   49.1    66   23.7   172    30.1   830.3    0.00 
 115   13:00   0.32   48.3    67   24.8   171    32.7   830.3    0.00 
 115   13:10   0.27   47.6    68   24.5   170    32.2   830.3    0.00 
 115   13:20   0.24   47.6    68   22.2   171    28.6   830.3    0.00 
 115   13:30   0.19   47.7    69   21.1   174    29.0   830.2    0.00 
 115   13:40   0.18   48.1    68   20.7   174    27.0   830.1    0.00 
 115   13:50   0.17   47.9    68   21.3   170    28.2   830.1    0.00 
 115   14:00   0.15   47.9    69   19.2   176    25.5   830.1    0.00 
 115   14:10   0.12   47.4    70   15.2   184    25.3   830.5    0.00 
 115   14:20   0.05   45.7    68    4.4    34    14.3   831.1    0.00 
 115   14:30   0.05   44.3    74    4.9    48     9.9   831.0    0.01 
 115   14:40   0.05   43.5    79    7.1   360    18.6   831.1    0.03 
 115   14:50   0.06   42.0    83    5.2   334    14.8   831.1    0.03 
 115   15:00   0.14   42.5    84    5.7    91     9.1   830.8    0.00 
 115   15:10   0.24   43.1    83    7.3    51    12.6   830.8    0.00 
 115   15:20   0.26   44.4    80    8.2   106    12.2   830.8    0.01 
 115   15:30   0.25   45.6    75    7.8   157    20.0   830.9    0.00 
 115   15:40   0.21   46.3    69    9.7   162    13.4   830.8    0.00 
 115   15:50   0.14   46.0    71    4.0    19     7.1   830.9    0.00 
 115   16:00   0.09   46.1    71    7.1   338    13.9   831.0    0.00 
 115   16:10   0.08   45.8    71   13.2   326    18.9   831.1    0.00 
 115   16:20   0.07   43.2    84   18.7   358    25.4   831.4    0.00 
 115   16:30   0.06   42.0    88   16.4     9    21.1   831.6    0.00 
 115   16:40   0.06   41.6    88   14.5    28    19.6   831.7    0.00 
 115   16:50   0.07   41.3    87   12.7    37    16.7   831.7    0.00 
 115   17:00   0.07   41.4    87   11.6    41    15.3   831.8    0.00 
 115   17:10   0.08   41.4    86    9.5    28    13.9   832.0    0.00 
 115   17:20   0.08   41.5    86    9.4    28    12.4   832.1    0.00 
 115   17:30   0.10   41.5    87    8.1    28    10.7   832.1    0.00 
 115   17:40   0.09   41.5    88    6.3    30     9.6   832.1    0.00 

Return to Snake Valley graphs page.


Western Regional Climate Center,wrcc@dri.edu